sensor_id;sensor_type;location;lat;lon;timestamp;P1;durP1;ratioP1;P2;durP2;ratioP2
2684;SDS011;1352;48.446;9.156;2022-08-19T00:00:16;37.00;;;32.63;;
2684;SDS011;1352;48.446;9.156;2022-08-19T00:02:44;36.80;;;32.73;;
2684;SDS011;1352;48.446;9.156;2022-08-19T00:05:13;37.37;;;30.27;;
2684;SDS011;1352;48.446;9.156;2022-08-19T00:07:41;36.60;;;32.27;;
2684;SDS011;1352;48.446;9.156;2022-08-19T00:10:11;37.30;;;31.30;;
2684;SDS011;1352;48.446;9.156;2022-08-19T00:12:40;37.13;;;30.23;;
2684;SDS011;1352;48.446;9.156;2022-08-19T00:15:09;36.60;;;32.13;;
2684;SDS011;1352;48.446;9.156;2022-08-19T00:17:39;35.67;;;31.70;;
2684;SDS011;1352;48.446;9.156;2022-08-19T00:20:07;40.47;;;33.90;;
2684;SDS011;1352;48.446;9.156;2022-08-19T00:22:36;40.60;;;34.77;;
2684;SDS011;1352;48.446;9.156;2022-08-19T00:25:04;38.43;;;31.70;;
2684;SDS011;1352;48.446;9.156;2022-08-19T00:27:33;37.20;;;32.57;;
2684;SDS011;1352;48.446;9.156;2022-08-19T00:30:01;38.07;;;33.97;;
2684;SDS011;1352;48.446;9.156;2022-08-19T00:32:30;41.37;;;36.20;;
2684;SDS011;1352;48.446;9.156;2022-08-19T00:34:59;35.33;;;31.40;;
2684;SDS011;1352;48.446;9.156;2022-08-19T00:37:26;41.43;;;33.03;;
2684;SDS011;1352;48.446;9.156;2022-08-19T00:39:54;35.33;;;30.50;;
2684;SDS011;1352;48.446;9.156;2022-08-19T00:42:22;40.43;;;32.90;;
2684;SDS011;1352;48.446;9.156;2022-08-19T00:44:55;38.13;;;31.20;;
2684;SDS011;1352;48.446;9.156;2022-08-19T00:47:22;38.63;;;34.43;;
2684;SDS011;1352;48.446;9.156;2022-08-19T00:49:50;42.80;;;34.87;;
2684;SDS011;1352;48.446;9.156;2022-08-19T00:52:21;42.50;;;32.63;;
2684;SDS011;1352;48.446;9.156;2022-08-19T00:54:52;41.67;;;32.27;;
2684;SDS011;1352;48.446;9.156;2022-08-19T00:57:21;39.67;;;32.33;;
2684;SDS011;1352;48.446;9.156;2022-08-19T00:59:52;42.83;;;34.60;;
2684;SDS011;1352;48.446;9.156;2022-08-19T01:02:24;38.03;;;32.63;;
2684;SDS011;1352;48.446;9.156;2022-08-19T01:04:53;37.27;;;32.77;;
2684;SDS011;1352;48.446;9.156;2022-08-19T01:07:21;40.17;;;32.50;;
2684;SDS011;1352;48.446;9.156;2022-08-19T01:09:48;37.47;;;33.13;;
2684;SDS011;1352;48.446;9.156;2022-08-19T01:12:15;38.13;;;30.77;;
2684;SDS011;1352;48.446;9.156;2022-08-19T01:14:44;37.23;;;31.53;;
2684;SDS011;1352;48.446;9.156;2022-08-19T01:17:14;40.90;;;34.50;;
2684;SDS011;1352;48.446;9.156;2022-08-19T01:19:43;37.37;;;31.40;;
2684;SDS011;1352;48.446;9.156;2022-08-19T01:22:12;43.93;;;34.13;;
2684;SDS011;1352;48.446;9.156;2022-08-19T01:24:47;43.27;;;36.33;;
2684;SDS011;1352;48.446;9.156;2022-08-19T01:27:14;42.63;;;34.33;;
2684;SDS011;1352;48.446;9.156;2022-08-19T01:29:42;42.10;;;33.30;;
2684;SDS011;1352;48.446;9.156;2022-08-19T01:32:11;36.00;;;31.50;;
2684;SDS011;1352;48.446;9.156;2022-08-19T01:34:40;38.40;;;31.60;;
2684;SDS011;1352;48.446;9.156;2022-08-19T01:37:13;35.93;;;32.07;;
2684;SDS011;1352;48.446;9.156;2022-08-19T01:39:41;39.47;;;32.30;;
2684;SDS011;1352;48.446;9.156;2022-08-19T01:42:10;38.60;;;33.27;;
2684;SDS011;1352;48.446;9.156;2022-08-19T01:44:40;41.67;;;32.73;;
2684;SDS011;1352;48.446;9.156;2022-08-19T01:47:07;38.17;;;33.00;;
2684;SDS011;1352;48.446;9.156;2022-08-19T01:49:35;41.17;;;34.50;;
2684;SDS011;1352;48.446;9.156;2022-08-19T01:52:03;38.97;;;32.87;;
2684;SDS011;1352;48.446;9.156;2022-08-19T01:54:31;39.03;;;33.43;;
2684;SDS011;1352;48.446;9.156;2022-08-19T01:57:00;45.67;;;36.80;;
2684;SDS011;1352;48.446;9.156;2022-08-19T01:59:32;44.23;;;34.37;;
2684;SDS011;1352;48.446;9.156;2022-08-19T02:02:01;40.17;;;34.43;;
2684;SDS011;1352;48.446;9.156;2022-08-19T02:04:31;42.87;;;34.60;;
2684;SDS011;1352;48.446;9.156;2022-08-19T02:06:59;41.27;;;33.60;;
2684;SDS011;1352;48.446;9.156;2022-08-19T02:09:26;42.97;;;36.00;;
2684;SDS011;1352;48.446;9.156;2022-08-19T02:11:53;43.90;;;34.20;;
2684;SDS011;1352;48.446;9.156;2022-08-19T02:14:20;42.40;;;34.70;;
2684;SDS011;1352;48.446;9.156;2022-08-19T02:16:48;42.60;;;32.03;;
2684;SDS011;1352;48.446;9.156;2022-08-19T02:19:15;47.77;;;35.60;;
2684;SDS011;1352;48.446;9.156;2022-08-19T02:21:42;41.10;;;33.93;;
2684;SDS011;1352;48.446;9.156;2022-08-19T02:24:09;44.60;;;33.73;;
2684;SDS011;1352;48.446;9.156;2022-08-19T02:26:37;37.87;;;32.80;;
2684;SDS011;1352;48.446;9.156;2022-08-19T02:29:04;38.13;;;30.60;;
2684;SDS011;1352;48.446;9.156;2022-08-19T02:31:32;42.13;;;34.87;;
2684;SDS011;1352;48.446;9.156;2022-08-19T02:34:01;38.80;;;32.60;;
2684;SDS011;1352;48.446;9.156;2022-08-19T02:36:29;42.60;;;33.10;;
2684;SDS011;1352;48.446;9.156;2022-08-19T02:38:56;41.30;;;33.33;;
2684;SDS011;1352;48.446;9.156;2022-08-19T02:41:23;41.97;;;33.13;;
2684;SDS011;1352;48.446;9.156;2022-08-19T02:43:52;41.83;;;32.60;;
2684;SDS011;1352;48.446;9.156;2022-08-19T02:46:19;42.60;;;33.73;;
2684;SDS011;1352;48.446;9.156;2022-08-19T02:48:48;40.87;;;33.20;;
2684;SDS011;1352;48.446;9.156;2022-08-19T02:51:18;41.50;;;32.93;;
2684;SDS011;1352;48.446;9.156;2022-08-19T02:53:46;39.77;;;32.43;;
2684;SDS011;1352;48.446;9.156;2022-08-19T02:56:14;40.30;;;31.53;;
2684;SDS011;1352;48.446;9.156;2022-08-19T02:58:41;39.93;;;32.27;;
2684;SDS011;1352;48.446;9.156;2022-08-19T03:01:11;42.33;;;32.47;;
2684;SDS011;1352;48.446;9.156;2022-08-19T03:03:45;43.37;;;32.93;;
2684;SDS011;1352;48.446;9.156;2022-08-19T03:06:14;42.60;;;32.80;;
2684;SDS011;1352;48.446;9.156;2022-08-19T03:08:44;41.10;;;32.70;;
2684;SDS011;1352;48.446;9.156;2022-08-19T03:11:15;45.10;;;34.77;;
2684;SDS011;1352;48.446;9.156;2022-08-19T03:13:43;43.57;;;34.07;;
2684;SDS011;1352;48.446;9.156;2022-08-19T03:16:11;45.90;;;34.00;;
2684;SDS011;1352;48.446;9.156;2022-08-19T03:18:39;38.97;;;31.90;;
2684;SDS011;1352;48.446;9.156;2022-08-19T03:21:06;41.40;;;32.60;;
2684;SDS011;1352;48.446;9.156;2022-08-19T03:23:33;44.23;;;33.73;;
2684;SDS011;1352;48.446;9.156;2022-08-19T03:26:05;37.83;;;30.13;;
2684;SDS011;1352;48.446;9.156;2022-08-19T03:28:32;38.90;;;31.00;;
2684;SDS011;1352;48.446;9.156;2022-08-19T03:31:01;37.90;;;31.20;;
2684;SDS011;1352;48.446;9.156;2022-08-19T03:33:30;37.53;;;30.67;;
2684;SDS011;1352;48.446;9.156;2022-08-19T03:35:59;41.93;;;33.40;;
2684;SDS011;1352;48.446;9.156;2022-08-19T03:38:32;50.20;;;33.90;;
2684;SDS011;1352;48.446;9.156;2022-08-19T03:41:04;37.23;;;30.40;;
2684;SDS011;1352;48.446;9.156;2022-08-19T03:43:34;42.47;;;31.47;;
2684;SDS011;1352;48.446;9.156;2022-08-19T03:46:03;45.70;;;33.83;;
2684;SDS011;1352;48.446;9.156;2022-08-19T03:48:32;47.97;;;35.10;;
2684;SDS011;1352;48.446;9.156;2022-08-19T03:51:00;53.70;;;36.20;;
2684;SDS011;1352;48.446;9.156;2022-08-19T03:53:28;42.00;;;33.80;;
2684;SDS011;1352;48.446;9.156;2022-08-19T03:55:56;48.17;;;33.57;;
2684;SDS011;1352;48.446;9.156;2022-08-19T03:58:27;39.97;;;31.47;;
2684;SDS011;1352;48.446;9.156;2022-08-19T04:00:56;45.30;;;33.97;;
2684;SDS011;1352;48.446;9.156;2022-08-19T04:03:23;46.10;;;34.10;;
2684;SDS011;1352;48.446;9.156;2022-08-19T04:05:52;41.80;;;32.60;;
2684;SDS011;1352;48.446;9.156;2022-08-19T04:08:19;41.70;;;33.13;;
2684;SDS011;1352;48.446;9.156;2022-08-19T04:10:48;43.80;;;34.93;;
2684;SDS011;1352;48.446;9.156;2022-08-19T04:13:16;44.37;;;32.77;;
2684;SDS011;1352;48.446;9.156;2022-08-19T04:15:45;42.70;;;31.50;;
2684;SDS011;1352;48.446;9.156;2022-08-19T04:18:13;42.77;;;33.33;;
2684;SDS011;1352;48.446;9.156;2022-08-19T04:20:44;43.27;;;33.97;;
2684;SDS011;1352;48.446;9.156;2022-08-19T04:23:14;42.70;;;33.37;;
2684;SDS011;1352;48.446;9.156;2022-08-19T04:25:42;47.90;;;35.73;;
2684;SDS011;1352;48.446;9.156;2022-08-19T04:28:11;45.17;;;33.70;;
2684;SDS011;1352;48.446;9.156;2022-08-19T04:30:40;39.70;;;34.47;;
2684;SDS011;1352;48.446;9.156;2022-08-19T04:33:11;42.87;;;33.80;;
2684;SDS011;1352;48.446;9.156;2022-08-19T04:35:41;48.53;;;34.53;;
2684;SDS011;1352;48.446;9.156;2022-08-19T04:38:10;49.47;;;35.37;;
2684;SDS011;1352;48.446;9.156;2022-08-19T04:40:39;44.20;;;34.50;;
2684;SDS011;1352;48.446;9.156;2022-08-19T04:43:25;43.57;;;34.07;;
2684;SDS011;1352;48.446;9.156;2022-08-19T04:45:52;51.90;;;34.23;;
2684;SDS011;1352;48.446;9.156;2022-08-19T04:48:21;44.50;;;34.50;;
2684;SDS011;1352;48.446;9.156;2022-08-19T04:50:52;45.37;;;34.37;;
2684;SDS011;1352;48.446;9.156;2022-08-19T04:53:22;43.93;;;34.00;;
2684;SDS011;1352;48.446;9.156;2022-08-19T04:55:53;45.73;;;35.70;;
2684;SDS011;1352;48.446;9.156;2022-08-19T04:58:21;44.33;;;34.03;;
2684;SDS011;1352;48.446;9.156;2022-08-19T05:00:49;47.17;;;36.90;;
2684;SDS011;1352;48.446;9.156;2022-08-19T05:03:17;48.90;;;36.53;;
2684;SDS011;1352;48.446;9.156;2022-08-19T05:05:46;53.67;;;38.27;;
2684;SDS011;1352;48.446;9.156;2022-08-19T05:08:17;50.07;;;37.23;;
2684;SDS011;1352;48.446;9.156;2022-08-19T05:10:46;47.07;;;35.07;;
2684;SDS011;1352;48.446;9.156;2022-08-19T05:13:14;51.40;;;37.80;;
2684;SDS011;1352;48.446;9.156;2022-08-19T05:15:42;48.80;;;37.63;;
2684;SDS011;1352;48.446;9.156;2022-08-19T05:18:10;41.97;;;35.70;;
2684;SDS011;1352;48.446;9.156;2022-08-19T05:21:12;46.30;;;34.93;;
2684;SDS011;1352;48.446;9.156;2022-08-19T05:23:59;46.50;;;36.10;;
2684;SDS011;1352;48.446;9.156;2022-08-19T05:26:27;53.87;;;38.97;;
2684;SDS011;1352;48.446;9.156;2022-08-19T05:28:55;52.33;;;38.50;;
2684;SDS011;1352;48.446;9.156;2022-08-19T05:31:22;52.43;;;37.40;;
2684;SDS011;1352;48.446;9.156;2022-08-19T05:33:49;47.13;;;37.13;;
2684;SDS011;1352;48.446;9.156;2022-08-19T05:36:17;51.60;;;38.00;;
2684;SDS011;1352;48.446;9.156;2022-08-19T05:38:45;53.77;;;40.10;;
2684;SDS011;1352;48.446;9.156;2022-08-19T05:41:13;52.20;;;39.27;;
2684;SDS011;1352;48.446;9.156;2022-08-19T05:43:41;51.83;;;38.83;;
2684;SDS011;1352;48.446;9.156;2022-08-19T05:46:08;54.73;;;38.90;;
2684;SDS011;1352;48.446;9.156;2022-08-19T05:48:43;48.47;;;37.53;;
2684;SDS011;1352;48.446;9.156;2022-08-19T05:51:11;46.60;;;36.93;;
2684;SDS011;1352;48.446;9.156;2022-08-19T05:53:40;52.30;;;39.80;;
2684;SDS011;1352;48.446;9.156;2022-08-19T05:56:08;49.33;;;38.57;;
2684;SDS011;1352;48.446;9.156;2022-08-19T05:58:40;52.10;;;37.43;;
2684;SDS011;1352;48.446;9.156;2022-08-19T06:01:09;47.27;;;37.67;;
2684;SDS011;1352;48.446;9.156;2022-08-19T06:03:38;47.17;;;36.60;;
2684;SDS011;1352;48.446;9.156;2022-08-19T06:06:05;52.27;;;40.53;;
2684;SDS011;1352;48.446;9.156;2022-08-19T06:08:34;46.53;;;37.80;;
2684;SDS011;1352;48.446;9.156;2022-08-19T06:11:15;55.23;;;40.87;;
2684;SDS011;1352;48.446;9.156;2022-08-19T06:13:44;47.03;;;39.07;;
2684;SDS011;1352;48.446;9.156;2022-08-19T06:16:15;48.77;;;38.00;;
2684;SDS011;1352;48.446;9.156;2022-08-19T06:18:47;51.53;;;38.97;;
2684;SDS011;1352;48.446;9.156;2022-08-19T06:21:17;50.67;;;39.87;;
2684;SDS011;1352;48.446;9.156;2022-08-19T06:23:45;53.23;;;39.87;;
2684;SDS011;1352;48.446;9.156;2022-08-19T06:26:14;51.03;;;38.40;;
2684;SDS011;1352;48.446;9.156;2022-08-19T06:28:41;53.80;;;39.70;;
2684;SDS011;1352;48.446;9.156;2022-08-19T06:31:12;53.13;;;38.97;;
2684;SDS011;1352;48.446;9.156;2022-08-19T06:33:41;51.03;;;38.40;;
2684;SDS011;1352;48.446;9.156;2022-08-19T06:36:15;55.87;;;41.00;;
2684;SDS011;1352;48.446;9.156;2022-08-19T06:38:43;48.50;;;37.67;;
2684;SDS011;1352;48.446;9.156;2022-08-19T06:41:11;52.77;;;39.73;;
2684;SDS011;1352;48.446;9.156;2022-08-19T06:43:39;53.40;;;40.50;;
2684;SDS011;1352;48.446;9.156;2022-08-19T06:46:11;52.10;;;38.63;;
2684;SDS011;1352;48.446;9.156;2022-08-19T06:48:40;57.60;;;39.93;;
2684;SDS011;1352;48.446;9.156;2022-08-19T06:51:07;61.00;;;41.90;;
2684;SDS011;1352;48.446;9.156;2022-08-19T06:53:35;55.20;;;41.50;;
2684;SDS011;1352;48.446;9.156;2022-08-19T06:56:02;62.10;;;40.10;;
2684;SDS011;1352;48.446;9.156;2022-08-19T06:58:29;58.10;;;44.43;;
2684;SDS011;1352;48.446;9.156;2022-08-19T07:01:00;57.13;;;40.90;;
2684;SDS011;1352;48.446;9.156;2022-08-19T07:03:29;50.00;;;38.17;;
2684;SDS011;1352;48.446;9.156;2022-08-19T07:05:58;52.17;;;40.47;;
2684;SDS011;1352;48.446;9.156;2022-08-19T07:08:30;50.10;;;38.53;;
2684;SDS011;1352;48.446;9.156;2022-08-19T07:10:57;50.40;;;38.70;;
2684;SDS011;1352;48.446;9.156;2022-08-19T07:13:25;54.77;;;39.57;;
2684;SDS011;1352;48.446;9.156;2022-08-19T07:15:52;53.07;;;39.60;;
2684;SDS011;1352;48.446;9.156;2022-08-19T07:18:21;51.83;;;39.90;;
2684;SDS011;1352;48.446;9.156;2022-08-19T07:20:48;54.03;;;39.50;;
2684;SDS011;1352;48.446;9.156;2022-08-19T07:23:15;49.17;;;38.60;;
2684;SDS011;1352;48.446;9.156;2022-08-19T07:25:42;59.07;;;44.60;;
2684;SDS011;1352;48.446;9.156;2022-08-19T07:28:11;52.50;;;41.47;;
2684;SDS011;1352;48.446;9.156;2022-08-19T07:30:38;55.00;;;41.10;;
2684;SDS011;1352;48.446;9.156;2022-08-19T07:33:06;57.37;;;41.43;;
2684;SDS011;1352;48.446;9.156;2022-08-19T07:35:35;50.67;;;41.00;;
2684;SDS011;1352;48.446;9.156;2022-08-19T07:38:02;52.90;;;40.17;;
2684;SDS011;1352;48.446;9.156;2022-08-19T07:40:29;52.10;;;39.20;;
2684;SDS011;1352;48.446;9.156;2022-08-19T07:42:57;53.60;;;40.83;;
2684;SDS011;1352;48.446;9.156;2022-08-19T07:45:24;61.40;;;41.80;;
2684;SDS011;1352;48.446;9.156;2022-08-19T07:47:53;59.00;;;42.80;;
2684;SDS011;1352;48.446;9.156;2022-08-19T07:50:21;48.23;;;36.60;;
2684;SDS011;1352;48.446;9.156;2022-08-19T07:52:49;53.27;;;40.70;;
2684;SDS011;1352;48.446;9.156;2022-08-19T07:55:20;60.67;;;42.77;;
2684;SDS011;1352;48.446;9.156;2022-08-19T07:57:50;52.17;;;39.17;;
2684;SDS011;1352;48.446;9.156;2022-08-19T08:00:18;54.90;;;40.40;;
2684;SDS011;1352;48.446;9.156;2022-08-19T08:02:45;53.80;;;44.13;;
2684;SDS011;1352;48.446;9.156;2022-08-19T08:05:13;58.43;;;41.90;;
2684;SDS011;1352;48.446;9.156;2022-08-19T08:07:59;60.20;;;42.20;;
2684;SDS011;1352;48.446;9.156;2022-08-19T08:10:43;59.03;;;43.70;;
2684;SDS011;1352;48.446;9.156;2022-08-19T08:13:10;62.23;;;45.27;;
2684;SDS011;1352;48.446;9.156;2022-08-19T08:15:37;57.10;;;41.90;;
2684;SDS011;1352;48.446;9.156;2022-08-19T08:18:05;53.57;;;41.30;;
2684;SDS011;1352;48.446;9.156;2022-08-19T08:20:32;57.17;;;42.63;;
2684;SDS011;1352;48.446;9.156;2022-08-19T08:23:01;55.10;;;40.70;;
2684;SDS011;1352;48.446;9.156;2022-08-19T08:25:46;59.03;;;42.60;;
2684;SDS011;1352;48.446;9.156;2022-08-19T08:28:16;61.03;;;43.33;;
2684;SDS011;1352;48.446;9.156;2022-08-19T08:30:47;57.57;;;44.40;;
2684;SDS011;1352;48.446;9.156;2022-08-19T08:33:17;59.60;;;42.83;;
2684;SDS011;1352;48.446;9.156;2022-08-19T08:35:46;61.80;;;41.77;;
2684;SDS011;1352;48.446;9.156;2022-08-19T08:38:17;61.53;;;43.17;;
2684;SDS011;1352;48.446;9.156;2022-08-19T08:40:45;58.10;;;42.57;;
2684;SDS011;1352;48.446;9.156;2022-08-19T08:43:22;57.07;;;42.13;;
2684;SDS011;1352;48.446;9.156;2022-08-19T08:45:55;55.60;;;42.47;;
2684;SDS011;1352;48.446;9.156;2022-08-19T08:48:35;56.80;;;42.33;;
2684;SDS011;1352;48.446;9.156;2022-08-19T08:51:07;63.83;;;42.63;;
2684;SDS011;1352;48.446;9.156;2022-08-19T08:53:39;56.57;;;43.40;;
2684;SDS011;1352;48.446;9.156;2022-08-19T08:56:09;61.90;;;43.67;;
2684;SDS011;1352;48.446;9.156;2022-08-19T08:58:44;67.90;;;49.10;;
2684;SDS011;1352;48.446;9.156;2022-08-19T09:01:17;68.90;;;46.93;;
2684;SDS011;1352;48.446;9.156;2022-08-19T09:03:45;55.50;;;41.77;;
2684;SDS011;1352;48.446;9.156;2022-08-19T09:06:14;55.50;;;40.83;;
2684;SDS011;1352;48.446;9.156;2022-08-19T09:08:53;56.70;;;42.77;;
2684;SDS011;1352;48.446;9.156;2022-08-19T09:11:36;62.10;;;45.10;;
2684;SDS011;1352;48.446;9.156;2022-08-19T09:14:16;59.47;;;43.90;;
2684;SDS011;1352;48.446;9.156;2022-08-19T09:16:54;57.07;;;42.40;;
2684;SDS011;1352;48.446;9.156;2022-08-19T09:19:24;64.87;;;44.10;;
2684;SDS011;1352;48.446;9.156;2022-08-19T09:21:52;64.00;;;47.33;;
2684;SDS011;1352;48.446;9.156;2022-08-19T09:24:21;59.50;;;44.53;;
2684;SDS011;1352;48.446;9.156;2022-08-19T09:26:48;66.47;;;46.10;;
2684;SDS011;1352;48.446;9.156;2022-08-19T09:29:18;64.53;;;43.83;;
2684;SDS011;1352;48.446;9.156;2022-08-19T09:31:49;63.60;;;45.10;;
2684;SDS011;1352;48.446;9.156;2022-08-19T09:34:16;54.40;;;39.60;;
2684;SDS011;1352;48.446;9.156;2022-08-19T09:36:45;64.77;;;42.87;;
2684;SDS011;1352;48.446;9.156;2022-08-19T09:39:12;54.80;;;42.70;;
2684;SDS011;1352;48.446;9.156;2022-08-19T09:41:40;58.73;;;41.33;;
2684;SDS011;1352;48.446;9.156;2022-08-19T09:44:08;57.90;;;42.30;;
2684;SDS011;1352;48.446;9.156;2022-08-19T09:46:36;55.77;;;43.00;;
2684;SDS011;1352;48.446;9.156;2022-08-19T09:49:03;59.93;;;42.73;;
2684;SDS011;1352;48.446;9.156;2022-08-19T09:51:31;64.33;;;46.07;;
2684;SDS011;1352;48.446;9.156;2022-08-19T09:54:00;60.73;;;43.47;;
2684;SDS011;1352;48.446;9.156;2022-08-19T09:56:29;53.20;;;41.57;;
2684;SDS011;1352;48.446;9.156;2022-08-19T09:59:02;53.93;;;42.07;;
2684;SDS011;1352;48.446;9.156;2022-08-19T10:01:30;57.47;;;41.37;;
2684;SDS011;1352;48.446;9.156;2022-08-19T10:03:58;53.00;;;40.57;;
2684;SDS011;1352;48.446;9.156;2022-08-19T10:06:28;54.17;;;41.20;;
2684;SDS011;1352;48.446;9.156;2022-08-19T10:09:00;50.77;;;41.47;;
2684;SDS011;1352;48.446;9.156;2022-08-19T10:11:32;49.77;;;38.80;;
2684;SDS011;1352;48.446;9.156;2022-08-19T10:14:01;54.63;;;41.57;;
2684;SDS011;1352;48.446;9.156;2022-08-19T10:16:31;50.50;;;39.57;;
2684;SDS011;1352;48.446;9.156;2022-08-19T10:19:01;51.27;;;40.27;;
2684;SDS011;1352;48.446;9.156;2022-08-19T10:21:29;45.43;;;39.07;;
2684;SDS011;1352;48.446;9.156;2022-08-19T10:24:00;54.60;;;40.00;;
2684;SDS011;1352;48.446;9.156;2022-08-19T10:26:31;64.90;;;38.20;;
2684;SDS011;1352;48.446;9.156;2022-08-19T10:29:02;54.50;;;40.20;;
2684;SDS011;1352;48.446;9.156;2022-08-19T10:31:31;61.93;;;42.57;;
2684;SDS011;1352;48.446;9.156;2022-08-19T10:34:02;59.27;;;42.93;;
2684;SDS011;1352;48.446;9.156;2022-08-19T10:36:30;64.40;;;44.57;;
2684;SDS011;1352;48.446;9.156;2022-08-19T10:39:02;55.83;;;42.00;;
2684;SDS011;1352;48.446;9.156;2022-08-19T10:41:33;53.23;;;40.60;;
2684;SDS011;1352;48.446;9.156;2022-08-19T10:44:05;62.30;;;41.33;;
2684;SDS011;1352;48.446;9.156;2022-08-19T10:46:35;56.53;;;41.70;;
2684;SDS011;1352;48.446;9.156;2022-08-19T10:49:06;58.87;;;43.87;;
2684;SDS011;1352;48.446;9.156;2022-08-19T10:51:33;65.70;;;47.30;;
2684;SDS011;1352;48.446;9.156;2022-08-19T10:54:17;55.43;;;42.13;;
2684;SDS011;1352;48.446;9.156;2022-08-19T10:56:45;69.07;;;46.70;;
2684;SDS011;1352;48.446;9.156;2022-08-19T10:59:20;61.67;;;43.03;;
2684;SDS011;1352;48.446;9.156;2022-08-19T11:01:49;52.90;;;40.77;;
2684;SDS011;1352;48.446;9.156;2022-08-19T11:04:17;60.13;;;43.10;;
2684;SDS011;1352;48.446;9.156;2022-08-19T11:06:46;59.27;;;42.80;;
2684;SDS011;1352;48.446;9.156;2022-08-19T11:09:14;53.67;;;40.80;;
2684;SDS011;1352;48.446;9.156;2022-08-19T11:11:42;51.27;;;41.67;;
2684;SDS011;1352;48.446;9.156;2022-08-19T11:14:11;49.07;;;40.37;;
2684;SDS011;1352;48.446;9.156;2022-08-19T11:16:41;60.30;;;44.27;;
2684;SDS011;1352;48.446;9.156;2022-08-19T11:19:09;51.50;;;41.20;;
2684;SDS011;1352;48.446;9.156;2022-08-19T11:21:39;55.50;;;44.30;;
2684;SDS011;1352;48.446;9.156;2022-08-19T11:24:08;55.77;;;42.30;;
2684;SDS011;1352;48.446;9.156;2022-08-19T11:26:37;58.23;;;44.43;;
2684;SDS011;1352;48.446;9.156;2022-08-19T11:29:06;60.07;;;42.97;;
2684;SDS011;1352;48.446;9.156;2022-08-19T11:31:36;57.90;;;45.77;;
2684;SDS011;1352;48.446;9.156;2022-08-19T11:34:06;55.93;;;47.63;;
2684;SDS011;1352;48.446;9.156;2022-08-19T11:36:36;59.70;;;44.30;;
2684;SDS011;1352;48.446;9.156;2022-08-19T11:39:08;55.17;;;42.17;;
2684;SDS011;1352;48.446;9.156;2022-08-19T11:41:37;54.93;;;43.70;;
2684;SDS011;1352;48.446;9.156;2022-08-19T11:44:04;51.47;;;41.17;;
2684;SDS011;1352;48.446;9.156;2022-08-19T11:46:33;48.87;;;40.63;;
2684;SDS011;1352;48.446;9.156;2022-08-19T11:49:04;43.77;;;36.87;;
2684;SDS011;1352;48.446;9.156;2022-08-19T11:51:37;50.23;;;41.20;;
2684;SDS011;1352;48.446;9.156;2022-08-19T11:54:04;51.43;;;41.60;;
2684;SDS011;1352;48.446;9.156;2022-08-19T11:56:36;44.07;;;36.00;;
2684;SDS011;1352;48.446;9.156;2022-08-19T11:59:06;49.90;;;38.17;;
2684;SDS011;1352;48.446;9.156;2022-08-19T12:01:36;45.80;;;38.50;;
2684;SDS011;1352;48.446;9.156;2022-08-19T12:04:07;45.20;;;36.10;;
2684;SDS011;1352;48.446;9.156;2022-08-19T12:06:37;42.20;;;37.00;;
2684;SDS011;1352;48.446;9.156;2022-08-19T12:09:07;49.30;;;38.23;;
2684;SDS011;1352;48.446;9.156;2022-08-19T12:11:36;44.97;;;35.83;;
2684;SDS011;1352;48.446;9.156;2022-08-19T12:14:04;38.87;;;34.20;;
2684;SDS011;1352;48.446;9.156;2022-08-19T12:16:32;45.10;;;36.27;;
2684;SDS011;1352;48.446;9.156;2022-08-19T12:18:59;39.50;;;35.13;;
2684;SDS011;1352;48.446;9.156;2022-08-19T12:21:31;38.40;;;34.20;;
2684;SDS011;1352;48.446;9.156;2022-08-19T12:24:00;38.37;;;33.77;;
2684;SDS011;1352;48.446;9.156;2022-08-19T12:26:29;37.73;;;33.67;;
2684;SDS011;1352;48.446;9.156;2022-08-19T12:28:57;38.43;;;31.10;;
2684;SDS011;1352;48.446;9.156;2022-08-19T12:31:28;39.10;;;34.17;;
2684;SDS011;1352;48.446;9.156;2022-08-19T12:33:56;36.37;;;32.47;;
2684;SDS011;1352;48.446;9.156;2022-08-19T12:36:23;36.33;;;32.33;;
2684;SDS011;1352;48.446;9.156;2022-08-19T12:38:52;39.33;;;35.03;;
2684;SDS011;1352;48.446;9.156;2022-08-19T12:41:20;37.03;;;32.73;;
2684;SDS011;1352;48.446;9.156;2022-08-19T12:43:48;38.40;;;33.37;;
2684;SDS011;1352;48.446;9.156;2022-08-19T12:46:16;37.20;;;32.57;;
2684;SDS011;1352;48.446;9.156;2022-08-19T12:48:44;37.37;;;33.40;;
2684;SDS011;1352;48.446;9.156;2022-08-19T12:51:12;34.27;;;30.57;;
2684;SDS011;1352;48.446;9.156;2022-08-19T12:53:41;39.17;;;32.93;;
2684;SDS011;1352;48.446;9.156;2022-08-19T12:56:10;38.70;;;32.83;;
2684;SDS011;1352;48.446;9.156;2022-08-19T12:58:40;36.03;;;32.13;;
2684;SDS011;1352;48.446;9.156;2022-08-19T13:01:08;37.10;;;31.10;;
2684;SDS011;1352;48.446;9.156;2022-08-19T13:03:37;39.60;;;33.63;;
2684;SDS011;1352;48.446;9.156;2022-08-19T13:06:05;41.37;;;36.97;;
2684;SDS011;1352;48.446;9.156;2022-08-19T13:08:33;35.70;;;31.90;;
2684;SDS011;1352;48.446;9.156;2022-08-19T13:11:11;38.50;;;34.40;;
2684;SDS011;1352;48.446;9.156;2022-08-19T13:13:40;37.73;;;33.07;;
2684;SDS011;1352;48.446;9.156;2022-08-19T13:16:08;39.03;;;34.80;;
2684;SDS011;1352;48.446;9.156;2022-08-19T13:18:38;37.87;;;33.83;;
2684;SDS011;1352;48.446;9.156;2022-08-19T13:21:07;39.57;;;35.30;;
2684;SDS011;1352;48.446;9.156;2022-08-19T13:23:36;40.07;;;35.67;;
2684;SDS011;1352;48.446;9.156;2022-08-19T13:26:04;41.67;;;37.17;;
2684;SDS011;1352;48.446;9.156;2022-08-19T13:28:34;40.77;;;34.70;;
2684;SDS011;1352;48.446;9.156;2022-08-19T13:31:19;40.40;;;36.10;;
2684;SDS011;1352;48.446;9.156;2022-08-19T13:34:06;35.60;;;31.90;;
2684;SDS011;1352;48.446;9.156;2022-08-19T13:36:33;37.50;;;32.87;;
2684;SDS011;1352;48.446;9.156;2022-08-19T13:39:00;38.40;;;34.07;;
2684;SDS011;1352;48.446;9.156;2022-08-19T13:41:28;39.47;;;35.27;;
2684;SDS011;1352;48.446;9.156;2022-08-19T13:43:57;37.07;;;32.50;;
2684;SDS011;1352;48.446;9.156;2022-08-19T13:46:24;35.93;;;32.10;;
2684;SDS011;1352;48.446;9.156;2022-08-19T13:48:52;39.87;;;35.43;;
2684;SDS011;1352;48.446;9.156;2022-08-19T13:51:20;43.63;;;36.47;;
2684;SDS011;1352;48.446;9.156;2022-08-19T13:53:47;38.57;;;34.47;;
2684;SDS011;1352;48.446;9.156;2022-08-19T13:56:16;41.67;;;36.73;;
2684;SDS011;1352;48.446;9.156;2022-08-19T13:58:45;40.27;;;36.00;;
2684;SDS011;1352;48.446;9.156;2022-08-19T14:01:17;41.40;;;35.07;;
2684;SDS011;1352;48.446;9.156;2022-08-19T14:03:46;38.17;;;33.53;;
2684;SDS011;1352;48.446;9.156;2022-08-19T14:06:13;41.17;;;34.63;;
2684;SDS011;1352;48.446;9.156;2022-08-19T14:08:42;33.30;;;29.50;;
2684;SDS011;1352;48.446;9.156;2022-08-19T14:11:09;35.60;;;31.90;;
2684;SDS011;1352;48.446;9.156;2022-08-19T14:13:36;35.50;;;31.70;;
2684;SDS011;1352;48.446;9.156;2022-08-19T14:16:06;35.77;;;32.17;;
2684;SDS011;1352;48.446;9.156;2022-08-19T14:18:36;32.40;;;29.10;;
2684;SDS011;1352;48.446;9.156;2022-08-19T14:21:04;31.13;;;27.93;;
2684;SDS011;1352;48.446;9.156;2022-08-19T14:23:32;33.23;;;29.80;;
2684;SDS011;1352;48.446;9.156;2022-08-19T14:26:04;31.00;;;27.90;;
2684;SDS011;1352;48.446;9.156;2022-08-19T14:28:33;30.70;;;27.60;;
2684;SDS011;1352;48.446;9.156;2022-08-19T14:31:04;30.07;;;27.27;;
2684;SDS011;1352;48.446;9.156;2022-08-19T14:33:31;29.47;;;26.67;;
2684;SDS011;1352;48.446;9.156;2022-08-19T14:36:03;31.67;;;28.70;;
2684;SDS011;1352;48.446;9.156;2022-08-19T14:38:30;31.13;;;27.93;;
2684;SDS011;1352;48.446;9.156;2022-08-19T14:41:08;30.53;;;27.53;;
2684;SDS011;1352;48.446;9.156;2022-08-19T14:43:40;34.00;;;29.10;;
2684;SDS011;1352;48.446;9.156;2022-08-19T14:46:07;36.40;;;32.47;;
2684;SDS011;1352;48.446;9.156;2022-08-19T14:48:35;42.00;;;37.60;;
2684;SDS011;1352;48.446;9.156;2022-08-19T14:51:05;36.00;;;32.20;;
2684;SDS011;1352;48.446;9.156;2022-08-19T14:53:32;33.80;;;30.40;;
2684;SDS011;1352;48.446;9.156;2022-08-19T14:56:00;32.13;;;28.93;;
2684;SDS011;1352;48.446;9.156;2022-08-19T14:58:27;36.90;;;32.93;;
2684;SDS011;1352;48.446;9.156;2022-08-19T15:00:55;37.93;;;33.90;;